createdAt,value
2019-03-05T00:00:14.144Z,11.00
2019-03-05T00:03:18.056Z,10.93
2019-03-05T00:06:21.918Z,10.73
2019-03-05T00:09:25.578Z,8.83
2019-03-05T00:12:29.243Z,10.30
2019-03-05T00:15:33.377Z,9.00
2019-03-05T00:18:37.296Z,9.77
2019-03-05T00:21:40.994Z,9.07
2019-03-05T00:25:04.118Z,9.50
2019-03-05T00:28:24.933Z,9.00
2019-03-05T00:31:33.046Z,8.57
2019-03-05T00:34:59.167Z,8.93
2019-03-05T00:38:44.222Z,8.97
2019-03-05T00:42:27.276Z,8.30
2019-03-05T00:45:58.219Z,8.83
2019-03-05T00:49:30.497Z,7.57
2019-03-05T00:52:57.729Z,7.50
2019-03-05T00:56:12.257Z,7.57
2019-03-05T00:59:24.992Z,8.40
2019-03-05T01:03:21.908Z,7.83
2019-03-05T01:06:26.105Z,7.20
2019-03-05T01:09:30.284Z,7.00
2019-03-05T01:12:34.331Z,7.30
2019-03-05T01:15:37.900Z,6.73
2019-03-05T01:18:41.756Z,6.60
2019-03-05T01:21:45.331Z,6.97
2019-03-05T01:24:48.902Z,6.23
2019-03-05T01:27:52.583Z,7.00
2019-03-05T01:31:15.516Z,5.97
2019-03-05T01:34:50.170Z,5.83
2019-03-05T01:37:53.854Z,6.43
2019-03-05T01:41:01.251Z,6.63
2019-03-05T01:44:05.086Z,5.93
2019-03-05T01:47:08.643Z,5.57
2019-03-05T01:50:13.507Z,5.50
2019-03-05T01:53:17.081Z,5.90
2019-03-05T01:56:20.872Z,5.50
2019-03-05T01:59:24.457Z,5.93
2019-03-05T02:02:28.329Z,5.87
2019-03-05T02:05:32.054Z,5.10
2019-03-05T02:08:35.642Z,5.23
2019-03-05T02:11:39.283Z,5.27
2019-03-05T02:14:43.850Z,5.37
2019-03-05T02:17:47.433Z,5.13
2019-03-05T02:20:51.022Z,5.67
2019-03-05T02:24:37.792Z,5.07
2019-03-05T02:28:24.903Z,4.70
2019-03-05T02:32:09.644Z,4.80
2019-03-05T02:35:44.215Z,4.97
2019-03-05T02:39:26.862Z,4.77
2019-03-05T02:42:54.666Z,4.53
2019-03-05T02:46:48.103Z,4.50
2019-03-05T02:50:41.993Z,3.90
2019-03-05T02:54:23.672Z,4.43
2019-03-05T02:57:26.009Z,4.00
2019-03-05T03:00:40.871Z,4.57
2019-03-05T03:03:47.282Z,4.77
2019-03-05T03:06:50.872Z,4.20
2019-03-05T03:10:14.766Z,3.90
2019-03-05T03:13:18.315Z,3.80
2019-03-05T03:16:22.234Z,3.90
2019-03-05T03:19:26.245Z,3.70
2019-03-05T03:22:29.875Z,3.33
2019-03-05T03:25:33.427Z,3.60
2019-03-05T03:28:36.975Z,4.40
2019-03-05T03:31:40.522Z,3.70
2019-03-05T03:34:44.614Z,3.20
2019-03-05T03:37:48.239Z,3.27
2019-03-05T03:40:51.797Z,3.50
2019-03-05T03:43:55.414Z,3.70
2019-03-05T03:46:59.383Z,3.43
2019-03-05T03:50:02.948Z,3.30
2019-03-05T03:53:07.333Z,3.30
2019-03-05T03:56:10.888Z,3.73
2019-03-05T03:59:14.463Z,3.97
2019-03-05T04:02:18.018Z,3.37
2019-03-05T04:05:21.870Z,3.10
2019-03-05T04:08:25.457Z,2.93
2019-03-05T04:11:29.093Z,2.87
2019-03-05T04:14:32.638Z,3.03
2019-03-05T04:17:36.189Z,2.80
2019-03-05T04:20:44.064Z,3.03
2019-03-05T04:23:47.607Z,2.70
2019-03-05T04:26:51.167Z,2.97
2019-03-05T04:29:55.044Z,2.60
2019-03-05T04:32:58.601Z,3.13
2019-03-05T04:36:02.228Z,2.67
2019-03-05T04:39:09.100Z,3.00
2019-03-05T04:42:12.674Z,2.53
2019-03-05T04:45:53.029Z,2.70
2019-03-05T04:49:13.939Z,2.60
2019-03-05T04:52:20.357Z,2.60
2019-03-05T04:55:24.229Z,2.93
2019-03-05T04:58:27.780Z,3.23
2019-03-05T05:01:31.619Z,2.33
2019-03-05T05:04:35.464Z,2.33
2019-03-05T05:07:39.079Z,2.70
2019-03-05T05:10:43.076Z,2.20
2019-03-05T05:13:46.956Z,2.67
2019-03-05T05:16:50.506Z,2.33
2019-03-05T05:19:54.213Z,2.63
2019-03-05T05:22:58.031Z,33.27
2019-03-05T05:26:01.639Z,27.80
2019-03-05T05:29:05.281Z,18.93
2019-03-05T05:32:08.854Z,15.63
2019-03-05T05:35:12.751Z,13.50
2019-03-05T05:38:16.307Z,10.90
2019-03-05T05:41:19.870Z,11.40
2019-03-05T05:44:23.445Z,10.20
2019-03-05T05:47:26.998Z,10.73
2019-03-05T05:50:30.553Z,10.37
2019-03-05T05:53:34.185Z,3.50
2019-03-05T05:56:38.054Z,2.77
2019-03-05T05:59:41.929Z,2.30
2019-03-05T06:02:45.878Z,19.07
2019-03-05T06:05:49.515Z,12.70
2019-03-05T06:08:53.084Z,10.47
2019-03-05T06:11:56.974Z,8.63
2019-03-05T06:15:00.517Z,9.10
2019-03-05T06:18:04.146Z,7.67
2019-03-05T06:21:07.711Z,7.50
2019-03-05T06:24:11.273Z,8.20
2019-03-05T06:27:14.822Z,7.50
2019-03-05T06:30:18.382Z,8.03
2019-03-05T06:33:22.005Z,7.00
2019-03-05T06:36:25.499Z,6.77
2019-03-05T06:39:29.054Z,6.87
2019-03-05T06:42:32.943Z,6.23
2019-03-05T06:45:36.485Z,6.50
2019-03-05T06:48:40.051Z,6.10
2019-03-05T06:51:43.606Z,6.10
2019-03-05T06:54:47.189Z,6.00
2019-03-05T06:57:50.739Z,5.43
2019-03-05T07:00:54.278Z,5.20
2019-03-05T07:03:57.853Z,5.33
2019-03-05T07:07:01.676Z,5.00
2019-03-05T07:10:47.811Z,5.03
2019-03-05T07:13:51.478Z,4.43
2019-03-05T07:17:06.333Z,4.90
2019-03-05T07:21:03.442Z,4.60
2019-03-05T07:24:27.323Z,4.53
2019-03-05T07:27:32.557Z,4.30
2019-03-05T07:30:36.411Z,4.27
2019-03-05T07:33:39.967Z,3.93
2019-03-05T07:36:45.324Z,4.40
2019-03-05T07:39:49.072Z,4.20
2019-03-05T07:42:52.876Z,3.53
2019-03-05T07:45:56.422Z,3.83
2019-03-05T07:48:59.977Z,4.30
2019-03-05T07:52:03.594Z,3.83
2019-03-05T07:55:13.521Z,3.50
2019-03-05T07:58:15.635Z,3.60
2019-03-05T08:01:22.529Z,3.57
2019-03-05T08:04:24.763Z,3.40
2019-03-05T08:07:28.304Z,3.40
2019-03-05T08:10:32.951Z,2.73
2019-03-05T08:14:03.586Z,3.00
2019-03-05T08:17:07.496Z,3.23
2019-03-05T08:20:11.513Z,2.87
2019-03-05T08:23:15.126Z,2.93
2019-03-05T08:26:18.670Z,2.80
2019-03-05T08:29:22.222Z,2.67
2019-03-05T08:32:25.770Z,4.03
2019-03-05T08:35:29.602Z,3.03
2019-03-05T08:38:33.248Z,2.80
2019-03-05T08:41:36.868Z,2.90
2019-03-05T08:44:49.941Z,2.77
2019-03-05T08:47:45.794Z,6.63
2019-03-05T08:50:49.345Z,3.03
2019-03-05T08:53:52.892Z,3.10
2019-03-05T08:56:56.502Z,2.50
2019-03-05T09:00:00.379Z,6.43
2019-03-05T09:03:03.904Z,2.57
2019-03-05T09:06:07.876Z,2.07
2019-03-05T09:09:12.428Z,2.30
2019-03-05T09:12:15.969Z,2.20
2019-03-05T09:15:19.652Z,2.57
2019-03-05T09:18:23.564Z,2.10
2019-03-05T09:21:27.132Z,1.97
2019-03-05T09:24:30.794Z,1.90
2019-03-05T09:27:34.665Z,2.03
2019-03-05T09:30:38.308Z,2.13
2019-03-05T09:33:42.206Z,1.90
2019-03-05T09:36:50.984Z,2.03
2019-03-05T09:39:51.058Z,1.87
2019-03-05T09:42:54.754Z,1.90
2019-03-05T09:45:58.628Z,1.67
2019-03-05T09:49:02.520Z,1.83
2019-03-05T09:52:06.069Z,1.70
2019-03-05T09:55:11.844Z,1.80
2019-03-05T09:58:15.389Z,2.00
2019-03-05T10:01:19.326Z,1.70
2019-03-05T10:04:22.878Z,1.77
2019-03-05T10:07:26.435Z,1.97
2019-03-05T10:10:30.066Z,2.27
2019-03-05T10:13:33.679Z,1.60
2019-03-05T10:16:37.287Z,2.10
2019-03-05T10:19:40.841Z,1.50
2019-03-05T10:22:44.973Z,1.93
2019-03-05T10:25:48.885Z,1.40
2019-03-05T10:28:52.432Z,1.67
2019-03-05T10:31:55.985Z,1.57
2019-03-05T10:34:59.881Z,1.67
2019-03-05T10:38:05.040Z,1.70
2019-03-05T10:41:08.665Z,1.53
2019-03-05T10:44:12.278Z,1.60
2019-03-05T10:47:16.001Z,1.60
2019-03-05T10:50:22.811Z,1.90
2019-03-05T10:53:26.629Z,1.83
2019-03-05T10:56:30.842Z,1.73
2019-03-05T10:59:34.471Z,1.70
2019-03-05T11:02:38.018Z,1.40
2019-03-05T11:05:41.746Z,1.40
2019-03-05T11:08:45.294Z,1.50
2019-03-05T11:11:49.188Z,1.43
2019-03-05T11:14:53.072Z,1.50
2019-03-05T11:17:56.954Z,1.60
2019-03-05T11:21:00.527Z,1.50
2019-03-05T11:24:04.065Z,1.30
2019-03-05T11:27:07.909Z,1.40
2019-03-05T11:30:14.359Z,1.10
2019-03-05T11:33:17.984Z,1.50
2019-03-05T11:36:21.828Z,1.30
2019-03-05T11:39:27.156Z,1.40
2019-03-05T11:42:30.710Z,1.30
2019-03-05T11:45:40.996Z,1.80
2019-03-05T11:48:51.965Z,1.43
2019-03-05T11:52:03.764Z,1.50
2019-03-05T11:55:17.387Z,1.20
2019-03-05T11:58:26.804Z,1.33
2019-03-05T12:01:45.594Z,1.10
2019-03-05T12:05:00.584Z,1.27
2019-03-05T12:08:15.365Z,1.20
2019-03-05T12:11:27.320Z,1.30
2019-03-05T12:14:39.566Z,1.20
2019-03-05T12:17:50.312Z,1.00
2019-03-05T12:21:08.546Z,1.10
2019-03-05T12:24:32.658Z,1.10
2019-03-05T12:27:36.195Z,1.00
2019-03-05T12:30:39.815Z,1.10
2019-03-05T12:33:43.621Z,1.10
2019-03-05T12:36:47.165Z,0.97
2019-03-05T12:39:50.745Z,1.13
2019-03-05T12:42:54.469Z,1.13
2019-03-05T12:45:58.053Z,1.20
2019-03-05T12:49:01.601Z,1.10
2019-03-05T12:52:05.149Z,0.90
2019-03-05T12:55:09.168Z,0.97
2019-03-05T12:58:12.735Z,1.27
2019-03-05T13:01:16.270Z,1.00
2019-03-05T13:04:19.825Z,0.80
2019-03-05T13:07:23.620Z,0.90
2019-03-05T13:10:27.353Z,1.00
2019-03-05T13:13:30.997Z,0.93
2019-03-05T13:16:35.269Z,0.93
2019-03-05T13:19:39.842Z,0.90
2019-03-05T13:22:43.389Z,0.97
2019-03-05T13:25:46.946Z,1.00
2019-03-05T13:28:50.565Z,0.80
2019-03-05T13:31:54.113Z,0.90
2019-03-05T13:34:57.663Z,0.80
2019-03-05T13:38:03.302Z,0.97
2019-03-05T13:41:06.722Z,0.90
2019-03-05T13:44:32.169Z,0.80
2019-03-05T13:47:37.240Z,0.93
2019-03-05T13:51:05.864Z,1.00
2019-03-05T13:54:32.755Z,0.97
2019-03-05T13:58:24.574Z,0.87
2019-03-05T14:01:28.549Z,0.90
2019-03-05T14:04:46.002Z,0.93
2019-03-05T14:08:25.939Z,0.80
2019-03-05T14:11:29.661Z,0.90
2019-03-05T14:14:33.528Z,0.70
2019-03-05T14:17:40.653Z,0.77
2019-03-05T14:20:44.233Z,0.80
2019-03-05T14:23:47.963Z,0.90
2019-03-05T14:26:51.579Z,0.83
2019-03-05T14:29:55.454Z,0.77
2019-03-05T14:33:00.835Z,0.87
2019-03-05T14:36:04.285Z,1.37
2019-03-05T14:39:24.774Z,0.83
2019-03-05T14:42:28.502Z,0.80
2019-03-05T14:45:34.012Z,0.73
2019-03-05T14:48:37.535Z,0.90
2019-03-05T14:51:41.075Z,0.87
2019-03-05T14:54:44.647Z,0.70
2019-03-05T14:57:48.185Z,0.80
2019-03-05T15:00:52.083Z,0.87
2019-03-05T15:03:55.631Z,1.10
2019-03-05T15:06:59.207Z,1.10
2019-03-05T15:10:02.753Z,1.00
2019-03-05T15:13:15.315Z,0.80
2019-03-05T15:16:11.714Z,0.90
2019-03-05T15:19:21.509Z,0.90
2019-03-05T15:22:20.554Z,0.90
2019-03-05T15:25:24.098Z,0.97
2019-03-05T15:28:28.011Z,1.10
2019-03-05T15:31:31.550Z,0.97
2019-03-05T15:34:35.155Z,0.90
2019-03-05T15:37:38.990Z,1.10
2019-03-05T15:40:42.741Z,1.00
2019-03-05T15:43:46.259Z,0.90
2019-03-05T15:46:49.856Z,1.20
2019-03-05T15:49:53.358Z,0.90
2019-03-05T15:52:56.939Z,1.17
2019-03-05T15:56:00.454Z,0.97
2019-03-05T15:59:04.011Z,1.03
2019-03-05T16:02:07.558Z,1.03
2019-03-05T16:05:12.322Z,0.93
2019-03-05T16:08:16.011Z,1.10
2019-03-05T16:11:19.581Z,46.43
2019-03-05T16:14:23.144Z,17.90
2019-03-05T16:17:28.140Z,196.47
2019-03-05T16:20:32.098Z,134.90
2019-03-05T16:23:35.675Z,138.77
2019-03-05T16:26:39.243Z,140.13
2019-03-05T16:29:43.094Z,137.83
2019-03-05T16:32:51.717Z,135.03
2019-03-05T16:36:20.373Z,131.47
2019-03-05T16:39:43.233Z,127.73
2019-03-05T16:42:53.418Z,119.13
2019-03-05T16:46:03.054Z,119.63
2019-03-05T16:49:20.391Z,115.53
2019-03-05T16:52:34.951Z,115.33
2019-03-05T16:55:52.782Z,112.07
2019-03-05T16:59:19.756Z,110.00
2019-03-05T17:02:57.688Z,103.20
2019-03-05T17:06:17.052Z,103.50
2019-03-05T17:09:42.747Z,98.63
2019-03-05T17:12:50.715Z,92.47
2019-03-05T17:16:09.056Z,73.10
2019-03-05T17:19:20.413Z,65.33
2019-03-05T17:22:34.258Z,54.70
2019-03-05T17:25:51.185Z,46.57
2019-03-05T17:29:00.139Z,42.50
2019-03-05T17:32:13.282Z,40.37
2019-03-05T17:35:28.652Z,36.87
2019-03-05T17:38:50.827Z,35.80
2019-03-05T17:42:11.636Z,34.53
2019-03-05T17:45:28.493Z,50.13
2019-03-05T17:48:46.402Z,65.03
2019-03-05T17:52:10.177Z,61.10
2019-03-05T17:55:27.139Z,58.63
2019-03-05T17:58:44.447Z,50.87
2019-03-05T18:01:57.269Z,49.17
2019-03-05T18:05:15.317Z,47.40
2019-03-05T18:08:22.707Z,45.93
2019-03-05T18:11:39.082Z,42.63
2019-03-05T18:14:48.562Z,42.23
2019-03-05T18:18:07.568Z,39.37
2019-03-05T18:21:22.009Z,40.07
2019-03-05T18:24:39.341Z,36.40
2019-03-05T18:27:51.991Z,35.97
2019-03-05T18:31:06.147Z,35.50
2019-03-05T18:34:22.937Z,34.87
2019-03-05T18:37:34.711Z,34.67
2019-03-05T18:40:45.886Z,31.10
2019-03-05T18:44:00.351Z,34.60
2019-03-05T18:47:04.160Z,31.10
2019-03-05T18:50:08.291Z,31.13
2019-03-05T18:53:19.078Z,29.70
2019-03-05T18:56:24.972Z,28.93
2019-03-05T18:59:30.862Z,27.00
2019-03-05T19:02:34.431Z,26.67
2019-03-05T19:05:38.015Z,25.67
2019-03-05T19:08:41.955Z,27.23
2019-03-05T19:11:46.083Z,25.17
2019-03-05T19:14:49.869Z,24.80
2019-03-05T19:17:53.541Z,24.17
2019-03-05T19:20:57.108Z,23.87
2019-03-05T19:24:01.625Z,23.40
2019-03-05T19:27:05.203Z,22.60
2019-03-05T19:30:11.316Z,22.63
2019-03-05T19:33:15.057Z,22.20
2019-03-05T19:36:18.617Z,21.20
2019-03-05T19:39:22.172Z,22.10
2019-03-05T19:42:25.735Z,21.00
2019-03-05T19:45:29.696Z,19.70
2019-03-05T19:48:33.252Z,19.50
2019-03-05T19:51:36.815Z,19.80
2019-03-05T19:54:40.655Z,19.33
2019-03-05T19:57:44.551Z,18.90
2019-03-05T20:00:55.728Z,18.93
2019-03-05T20:03:59.563Z,17.73
2019-03-05T20:07:03.644Z,17.90
2019-03-05T20:10:09.027Z,15.83
2019-03-05T20:13:12.590Z,16.57
2019-03-05T20:16:17.984Z,16.33
2019-03-05T20:19:21.895Z,15.90
2019-03-05T20:22:25.513Z,15.97
2019-03-05T20:25:29.306Z,15.60
2019-03-05T20:28:32.863Z,14.77
2019-03-05T20:31:36.420Z,15.10
2019-03-05T20:34:39.989Z,16.03
2019-03-05T20:37:43.876Z,14.97
2019-03-05T20:40:47.430Z,14.80
2019-03-05T20:43:50.989Z,14.97
2019-03-05T20:46:56.006Z,14.37
2019-03-05T20:50:00.309Z,13.67
2019-03-05T20:53:03.820Z,7.37
2019-03-05T20:56:07.369Z,5.63
2019-03-05T20:59:13.423Z,10.33
2019-03-05T21:02:16.546Z,23.17
2019-03-05T21:05:20.136Z,25.93
2019-03-05T21:08:23.667Z,25.07
2019-03-05T21:11:27.817Z,23.67
2019-03-05T21:14:31.381Z,23.93
2019-03-05T21:17:35.255Z,22.10
2019-03-05T21:20:39.265Z,23.60
2019-03-05T21:23:43.183Z,22.20
2019-03-05T21:26:47.084Z,22.30
2019-03-05T21:29:50.944Z,21.77
2019-03-05T21:32:54.891Z,20.67
2019-03-05T21:35:58.833Z,20.90
2019-03-05T21:39:02.851Z,21.00
2019-03-05T21:42:06.410Z,20.67
2019-03-05T21:45:11.111Z,20.17
2019-03-05T21:48:14.668Z,20.00
2019-03-05T21:51:18.578Z,8.97
2019-03-05T21:54:22.212Z,11.33
2019-03-05T21:57:26.183Z,31.87
2019-03-05T22:00:30.541Z,32.93
2019-03-05T22:03:34.095Z,30.30
2019-03-05T22:06:37.943Z,29.30
2019-03-05T22:09:41.507Z,29.10
2019-03-05T22:12:45.449Z,28.97
2019-03-05T22:15:49.008Z,27.10
2019-03-05T22:18:52.568Z,26.17
2019-03-05T22:21:56.153Z,26.50
2019-03-05T22:24:59.715Z,24.40
2019-03-05T22:28:03.555Z,24.53
2019-03-05T22:31:07.385Z,24.23
2019-03-05T22:34:10.937Z,23.93
2019-03-05T22:37:14.511Z,23.53
2019-03-05T22:40:18.104Z,22.67
2019-03-05T22:43:21.897Z,18.87
2019-03-05T22:46:25.458Z,17.20
2019-03-05T22:49:29.288Z,16.67
2019-03-05T22:52:32.856Z,15.57
2019-03-05T22:55:36.419Z,16.03
2019-03-05T22:58:39.973Z,15.60
2019-03-05T23:01:44.136Z,14.57
2019-03-05T23:04:47.692Z,14.67
2019-03-05T23:07:51.260Z,14.37
2019-03-05T23:10:55.076Z,13.33
2019-03-05T23:13:58.980Z,12.77
2019-03-05T23:17:02.964Z,12.83
2019-03-05T23:20:07.111Z,12.60
2019-03-05T23:23:11.059Z,12.70
2019-03-05T23:26:15.037Z,11.57
2019-03-05T23:29:20.324Z,11.53
2019-03-05T23:32:24.578Z,11.07
2019-03-05T23:35:28.208Z,11.17
2019-03-05T23:38:32.037Z,10.80
2019-03-05T23:41:35.606Z,10.07
2019-03-05T23:44:39.187Z,10.97
2019-03-05T23:47:43.009Z,10.10
2019-03-05T23:50:47.117Z,10.10
2019-03-05T23:53:50.757Z,9.50
2019-03-05T23:56:54.343Z,9.47
2019-03-05T23:59:57.890Z,9.37
